Time;durP1;ratioP1;P1;durP2;ratioP2;P2;SDS_P1;SDS_P2;PMS_P1;PMS_P2;Temp;Humidity;BMP_temperature;BMP_pressure;BME280_temperature;BME280_humidity;BME280_pressure;Samples;Min_cycle;Max_cycle;Signal;HPM_P1;HPM_P2
2024/01/02 00:02:09;;;;;;;5.82;1.48;;;8.50;99.90;;;;;;5073927;28;20025;-66
2024/01/02 00:04:35;;;;;;;5.80;1.30;;;8.50;99.90;;;;;;5074142;28;20022;-66
2024/01/02 00:07:00;;;;;;;5.90;1.40;;;8.60;99.90;;;;;;5074124;28;20108;-66
2024/01/02 00:09:26;;;;;;;4.68;1.50;;;8.60;99.90;;;;;;5073827;28;20060;-66
2024/01/02 00:11:51;;;;;;;3.53;1.23;;;8.60;99.90;;;;;;5073927;28;20063;-66
2024/01/02 00:14:17;;;;;;;7.43;1.55;;;8.60;99.90;;;;;;5073925;28;20077;-66
2024/01/02 00:16:43;;;;;;;3.38;1.15;;;8.60;99.90;;;;;;5073826;28;20029;-66
2024/01/02 00:19:08;;;;;;;6.10;0.88;;;8.70;99.90;;;;;;5073849;28;20029;-66
2024/01/02 00:21:34;;;;;;;5.13;1.25;;;8.60;99.90;;;;;;5073685;28;20033;-66
2024/01/02 00:24:01;;;;;;;8.27;1.50;;;8.60;99.90;;;;;;5073703;28;20036;-66
2024/01/02 00:26:27;;;;;;;4.82;1.15;;;8.70;99.90;;;;;;5073560;28;20033;-66
2024/01/02 00:28:53;;;;;;;7.70;1.40;;;8.70;99.90;;;;;;5073635;28;20055;-65
2024/01/02 00:31:19;;;;;;;6.40;1.15;;;8.70;99.90;;;;;;5073378;28;20021;-66
2024/01/02 00:33:44;;;;;;;7.95;2.10;;;8.70;99.90;;;;;;5073564;28;20113;-66
2024/01/02 00:36:11;;;;;;;5.13;1.15;;;8.70;99.90;;;;;;5073493;28;20028;-66
2024/01/02 00:38:36;;;;;;;6.22;1.08;;;8.80;99.90;;;;;;5073413;28;20028;-66
2024/01/02 00:41:02;;;;;;;7.70;1.25;;;8.80;99.90;;;;;;5073322;28;20029;-66
2024/01/02 00:43:28;;;;;;;4.32;1.10;;;8.80;99.90;;;;;;5073326;28;20036;-65
2024/01/02 00:45:55;;;;;;;6.22;1.13;;;8.70;99.90;;;;;;5073314;28;20084;-66
2024/01/02 00:48:21;;;;;;;2.28;0.88;;;8.80;99.90;;;;;;5073185;28;20089;-66
2024/01/02 00:50:47;;;;;;;6.40;0.98;;;8.70;99.90;;;;;;5073289;28;20017;-66
2024/01/02 00:53:12;;;;;;;4.10;1.08;;;8.80;99.90;;;;;;5073026;28;20033;-66
2024/01/02 00:55:38;;;;;;;4.90;1.33;;;8.80;99.90;;;;;;5072937;28;20088;-65
2024/01/02 00:58:04;;;;;;;9.45;1.08;;;8.80;99.90;;;;;;5072883;28;20040;-65
2024/01/02 01:00:29;;;;;;;7.28;0.93;;;8.80;99.90;;;;;;5073023;28;20036;-66
2024/01/02 01:02:55;;;;;;;3.72;1.02;;;8.80;99.90;;;;;;5072840;28;20032;-65
2024/01/02 01:05:21;;;;;;;4.47;1.10;;;8.80;99.90;;;;;;5072854;28;20025;-65
2024/01/02 01:07:46;;;;;;;5.60;1.00;;;8.80;99.90;;;;;;5072841;28;20032;-65
2024/01/02 01:10:12;;;;;;;3.05;0.77;;;8.80;99.90;;;;;;5072732;28;20036;-66
2024/01/02 01:12:37;;;;;;;1.77;0.70;;;8.80;99.90;;;;;;5072698;28;20029;-66
2024/01/02 01:15:04;;;;;;;4.32;0.80;;;8.80;99.90;;;;;;5072656;28;20029;-66
2024/01/02 01:17:30;;;;;;;1.17;0.63;;;8.80;99.90;;;;;;5072744;28;20035;-63
2024/01/02 01:19:56;;;;;;;2.25;0.70;;;8.80;99.90;;;;;;5072530;28;20080;-64
2024/01/02 01:22:22;;;;;;;4.15;0.70;;;8.80;99.90;;;;;;5072521;28;20024;-63
2024/01/02 01:24:48;;;;;;;2.97;0.82;;;8.80;99.90;;;;;;5072651;28;20029;-63
2024/01/02 01:27:14;;;;;;;6.15;1.20;;;8.80;99.90;;;;;;5072679;28;20036;-63
2024/01/02 01:29:39;;;;;;;1.63;0.60;;;8.80;99.90;;;;;;5072460;28;20383;-64
2024/01/02 01:32:05;;;;;;;5.85;0.73;;;8.80;99.90;;;;;;5072207;28;20048;-63
2024/01/02 01:34:31;;;;;;;2.25;0.60;;;8.80;99.90;;;;;;5072558;28;20021;-63
2024/01/02 01:36:57;;;;;;;2.10;1.05;;;8.80;99.90;;;;;;5072363;28;20106;-64
2024/01/02 01:39:22;;;;;;;3.40;0.55;;;8.80;99.90;;;;;;5072397;28;20040;-63
2024/01/02 01:41:48;;;;;;;3.33;0.60;;;8.80;99.90;;;;;;5072330;28;20033;-64
2024/01/02 01:44:13;;;;;;;3.97;0.65;;;8.80;99.90;;;;;;5072396;28;20052;-64
2024/01/02 01:46:40;;;;;;;1.30;0.30;;;8.90;99.90;;;;;;5072272;28;20097;-64
2024/01/02 01:49:08;;;;;;;1.83;0.65;;;8.80;99.90;;;;;;5072098;28;20051;-64
2024/01/02 01:51:36;;;;;;;1.80;0.57;;;8.90;99.90;;;;;;5070999;28;20036;-64
2024/01/02 01:54:04;;;;;;;0.98;0.45;;;8.90;99.90;;;;;;5071255;28;20063;-63
2024/01/02 01:56:31;;;;;;;1.50;0.43;;;8.80;99.90;;;;;;5072153;28;20036;-64
2024/01/02 01:58:58;;;;;;;1.23;0.38;;;8.80;99.90;;;;;;5072224;28;20025;-64
2024/01/02 02:01:26;;;;;;;0.40;0.30;;;8.90;99.90;;;;;;5071976;28;20017;-64
2024/01/02 02:03:52;;;;;;;2.40;0.30;;;8.90;99.90;;;;;;5072165;28;20032;-63
2024/01/02 02:06:17;;;;;;;1.65;0.40;;;8.90;99.90;;;;;;5072051;28;20025;-64
2024/01/02 02:08:43;;;;;;;0.77;0.20;;;8.80;99.90;;;;;;5072769;28;20035;-63
2024/01/02 02:11:11;;;;;;;3.05;0.28;;;8.80;99.90;;;;;;5076169;28;20058;-64
2024/01/02 02:13:37;;;;;;;1.42;0.25;;;8.80;99.90;;;;;;5076229;28;20021;-63
2024/01/02 02:16:03;;;;;;;4.43;0.43;;;8.80;99.90;;;;;;5076200;28;20032;-63
2024/01/02 02:18:28;;;;;;;1.15;0.28;;;8.80;99.90;;;;;;5076182;28;20040;-63
2024/01/02 02:20:55;;;;;;;0.80;0.20;;;8.80;99.90;;;;;;5074906;28;20124;-63
2024/01/02 02:23:21;;;;;;;2.10;0.57;;;8.70;99.90;;;;;;5076180;28;20048;-64
2024/01/02 02:25:46;;;;;;;0.15;0.10;;;8.70;99.90;;;;;;5075962;28;20087;-64
2024/01/02 02:28:12;;;;;;;0.47;0.20;;;8.70;99.90;;;;;;5075986;28;20089;-63
2024/01/02 02:30:38;;;;;;;0.10;0.10;;;8.70;99.90;;;;;;5075891;28;20395;-64
2024/01/02 02:33:03;;;;;;;1.20;0.32;;;8.70;99.90;;;;;;5075634;28;20041;-64
2024/01/02 02:35:29;;;;;;;1.58;0.45;;;8.70;99.90;;;;;;5075821;28;20029;-63
2024/01/02 02:37:55;;;;;;;1.40;0.10;;;8.70;99.90;;;;;;5075856;28;20036;-64
2024/01/02 02:40:20;;;;;;;1.30;0.30;;;8.80;99.90;;;;;;5075668;28;20088;-63
2024/01/02 02:42:46;;;;;;;1.50;0.10;;;8.80;99.90;;;;;;5075762;28;20033;-63
2024/01/02 02:45:12;;;;;;;0.55;0.20;;;8.80;99.90;;;;;;5075599;28;20085;-63
2024/01/02 02:47:38;;;;;;;1.30;0.10;;;8.80;99.90;;;;;;5075607;28;20546;-63
2024/01/02 02:50:05;;;;;;;1.10;0.20;;;8.80;99.90;;;;;;5075342;28;20487;-63
2024/01/02 02:52:32;;;;;;;0.50;0.30;;;8.80;99.90;;;;;;5075540;28;20547;-65
2024/01/02 02:54:58;;;;;;;0.68;0.13;;;8.80;99.90;;;;;;5075537;28;20047;-63
2024/01/02 02:57:24;;;;;;;0.10;0.10;;;8.80;99.90;;;;;;5075461;28;20029;-63
2024/01/02 02:59:50;;;;;;;1.27;0.20;;;8.80;99.90;;;;;;5075451;28;20092;-64
2024/01/02 03:02:16;;;;;;;0.30;0.20;;;8.80;99.90;;;;;;5075163;28;20029;-64
2024/01/02 03:04:43;;;;;;;0.40;0.20;;;8.80;99.90;;;;;;5075319;28;20029;-64
2024/01/02 03:07:10;;;;;;;0.15;0.10;;;8.80;99.90;;;;;;5075350;28;20028;-63
2024/01/02 03:09:35;;;;;;;0.80;0.20;;;8.80;99.90;;;;;;5075219;28;20032;-63
2024/01/02 03:12:01;;;;;;;1.05;0.38;;;8.80;99.90;;;;;;5075281;28;20044;-63
2024/01/02 03:14:27;;;;;;;0.10;0.10;;;8.80;99.90;;;;;;5075194;28;20032;-64
2024/01/02 03:16:53;;;;;;;0.90;0.10;;;8.90;99.90;;;;;;5075104;28;20025;-63
2024/01/02 03:19:19;;;;;;;0.00;0.00;;;8.80;99.90;;;;;;5075049;28;20087;-63
2024/01/02 03:21:44;;;;;;;0.47;0.28;;;8.80;99.90;;;;;;5074970;28;20029;-63
2024/01/02 03:24:10;;;;;;;0.20;0.13;;;8.80;99.90;;;;;;5075119;28;20033;-63
2024/01/02 03:26:36;;;;;;;0.73;0.13;;;8.80;99.90;;;;;;5074860;28;20041;-63
2024/01/02 03:29:01;;;;;;;0.13;0.00;;;8.80;99.90;;;;;;5074828;28;20021;-63
2024/01/02 03:31:27;;;;;;;0.20;0.10;;;8.90;99.90;;;;;;5074543;28;20474;-64
2024/01/02 03:33:52;;;;;;;0.10;0.10;;;8.90;99.90;;;;;;5072559;28;20049;-64
2024/01/02 03:36:19;;;;;;;0.28;0.10;;;8.90;99.90;;;;;;5074848;28;20040;-63
2024/01/02 03:38:49;;;;;;;0.45;0.10;;;8.80;99.90;;;;;;5074742;28;20089;-64
2024/01/02 03:41:15;;;;;;;0.10;0.10;;;8.80;99.90;;;;;;5074689;28;20047;-64
2024/01/02 03:43:41;;;;;;;0.68;0.20;;;8.80;99.90;;;;;;5074683;28;20070;-63
2024/01/02 03:46:07;;;;;;;1.55;0.15;;;8.80;99.90;;;;;;5074577;28;20064;-63
2024/01/02 03:48:33;;;;;;;0.22;0.10;;;8.80;99.90;;;;;;5074407;28;20084;-63
2024/01/02 03:51:00;;;;;;;1.13;0.22;;;8.80;99.90;;;;;;5074426;28;20029;-63
2024/01/02 03:53:26;;;;;;;0.10;0.10;;;8.80;99.90;;;;;;5074510;28;20029;-63
2024/01/02 03:55:52;;;;;;;1.27;0.20;;;8.90;99.90;;;;;;5074366;28;20017;-63
2024/01/02 03:58:18;;;;;;;0.32;0.20;;;8.80;99.90;;;;;;5074387;28;20021;-63
2024/01/02 04:00:43;;;;;;;0.03;0.03;;;8.90;99.90;;;;;;5074214;28;20033;-63
2024/01/02 04:03:10;;;;;;;1.33;0.32;;;8.90;99.90;;;;;;5073001;28;20036;-64
2024/01/02 04:05:35;;;;;;;0.40;0.30;;;8.90;99.90;;;;;;5073246;28;20021;-63
2024/01/02 04:08:01;;;;;;;0.10;0.10;;;8.90;99.90;;;;;;5074166;28;20075;-63
2024/01/02 04:10:27;;;;;;;0.00;0.00;;;8.90;99.90;;;;;;5074236;28;20052;-62
2024/01/02 04:12:52;;;;;;;0.10;0.10;;;9.00;99.90;;;;;;5074113;28;20032;-63
2024/01/02 04:15:18;;;;;;;0.10;0.10;;;9.00;99.90;;;;;;5073867;28;20025;-63
2024/01/02 04:17:44;;;;;;;0.15;0.15;;;9.00;99.90;;;;;;5074023;28;20475;-63
2024/01/02 04:20:10;;;;;;;1.30;0.10;;;9.10;99.90;;;;;;5073873;28;20040;-64
2024/01/02 04:22:35;;;;;;;0.40;0.10;;;9.10;99.90;;;;;;5073934;28;20029;-64
2024/01/02 04:25:01;;;;;;;0.13;0.10;;;9.10;99.90;;;;;;5073861;28;20029;-63
2024/01/02 04:27:26;;;;;;;0.22;0.10;;;9.10;99.90;;;;;;5073645;28;20403;-64
2024/01/02 04:29:52;;;;;;;0.45;0.20;;;9.20;99.90;;;;;;5073625;28;20055;-63
2024/01/02 04:32:17;;;;;;;0.17;0.17;;;9.20;99.90;;;;;;5072550;28;20108;-63
2024/01/02 04:34:43;;;;;;;0.68;0.30;;;9.20;99.90;;;;;;5073630;28;20032;-63
2024/01/02 04:37:09;;;;;;;0.13;0.13;;;9.30;99.90;;;;;;5073522;28;20036;-64
2024/01/02 04:39:34;;;;;;;0.35;0.28;;;9.30;99.90;;;;;;5073453;28;20032;-63
2024/01/02 04:42:01;;;;;;;2.05;0.40;;;9.30;99.90;;;;;;5073349;28;20036;-64
2024/01/02 04:44:27;;;;;;;0.35;0.20;;;9.30;99.90;;;;;;5073304;28;20036;-63
2024/01/02 04:46:52;;;;;;;0.20;0.20;;;9.30;99.90;;;;;;5073265;28;20025;-64
2024/01/02 04:49:18;;;;;;;0.40;0.30;;;9.40;99.90;;;;;;5073290;28;20044;-63
2024/01/02 04:51:44;;;;;;;0.40;0.30;;;9.40;99.90;;;;;;5073375;28;20033;-63
2024/01/02 04:54:09;;;;;;;0.50;0.30;;;9.40;99.90;;;;;;5073256;28;20020;-63
2024/01/02 04:56:35;;;;;;;0.40;0.40;;;9.50;99.90;;;;;;5073298;28;20032;-63
2024/01/02 04:59:01;;;;;;;0.40;0.30;;;9.50;99.90;;;;;;5073229;28;20153;-64
2024/01/02 05:01:26;;;;;;;0.40;0.40;;;9.50;99.90;;;;;;5072964;28;20075;-64
2024/01/02 05:03:52;;;;;;;0.40;0.30;;;9.60;99.90;;;;;;5073112;28;20029;-64
2024/01/02 05:06:17;;;;;;;0.30;0.30;;;9.60;99.90;;;;;;5073074;28;20471;-64
2024/01/02 05:08:43;;;;;;;0.38;0.20;;;9.60;99.90;;;;;;5072945;28;20085;-63
2024/01/02 05:11:09;;;;;;;0.13;0.13;;;9.60;99.90;;;;;;5073041;28;20467;-64
2024/01/02 05:13:36;;;;;;;0.17;0.17;;;9.70;99.90;;;;;;5072932;28;20031;-63
2024/01/02 05:16:01;;;;;;;0.28;0.22;;;9.70;99.90;;;;;;5072851;28;20028;-64
2024/01/02 05:18:27;;;;;;;0.20;0.20;;;9.80;99.90;;;;;;5072908;28;20021;-63
2024/01/02 05:20:52;;;;;;;0.65;0.20;;;9.80;99.90;;;;;;5072837;28;20538;-63
2024/01/02 05:23:18;;;;;;;0.20;0.20;;;9.80;99.90;;;;;;5072769;28;20029;-63
2024/01/02 05:25:44;;;;;;;0.30;0.20;;;9.90;99.90;;;;;;5072713;28;20036;-64
2024/01/02 05:28:10;;;;;;;1.17;0.32;;;9.90;99.90;;;;;;5072550;28;20049;-63
2024/01/02 05:30:35;;;;;;;0.50;0.35;;;10.00;99.90;;;;;;5072495;28;20055;-64
2024/01/02 05:33:01;;;;;;;0.30;0.30;;;10.00;99.90;;;;;;5072111;28;20041;-65
2024/01/02 05:35:26;;;;;;;0.40;0.40;;;10.00;99.90;;;;;;5072640;28;20036;-64
2024/01/02 05:37:52;;;;;;;0.55;0.40;;;10.10;99.90;;;;;;5072483;28;20041;-64
2024/01/02 05:40:18;;;;;;;0.40;0.40;;;10.20;99.90;;;;;;5072521;28;20032;-63
2024/01/02 05:42:43;;;;;;;0.70;0.40;;;10.20;99.90;;;;;;5072236;28;20029;-64
2024/01/02 05:45:09;;;;;;;0.60;0.60;;;10.30;99.90;;;;;;5071872;28;20024;-63
2024/01/02 05:47:35;;;;;;;0.60;0.50;;;10.30;99.90;;;;;;5072384;28;20035;-64
2024/01/02 05:50:00;;;;;;;0.60;0.50;;;10.30;99.90;;;;;;5072287;28;20033;-64
2024/01/02 05:52:26;;;;;;;1.05;0.70;;;10.40;99.90;;;;;;5071346;28;20036;-64
2024/01/02 05:54:51;;;;;;;0.30;0.30;;;10.40;99.90;;;;;;5072340;28;20033;-63
2024/01/02 05:57:17;;;;;;;0.93;0.50;;;10.50;99.90;;;;;;5072194;28;20032;-63
2024/01/02 05:59:43;;;;;;;0.60;0.40;;;10.50;99.90;;;;;;5072241;28;20037;-63
2024/01/02 06:02:08;;;;;;;0.30;0.30;;;10.60;99.90;;;;;;5072093;28;20033;-64
2024/01/02 06:04:34;;;;;;;0.55;0.40;;;10.60;99.90;;;;;;5072240;28;20032;-64
2024/01/02 06:06:59;;;;;;;0.45;0.40;;;10.70;99.90;;;;;;5072207;28;20029;-63
2024/01/02 06:09:25;;;;;;;0.70;0.40;;;10.70;99.90;;;;;;5072016;28;20040;-64
2024/01/02 06:11:51;;;;;;;1.02;0.40;;;10.80;99.90;;;;;;5072190;28;20029;-64
2024/01/02 06:14:18;;;;;;;0.85;0.30;;;10.80;99.90;;;;;;5072061;28;20021;-64
2024/01/02 06:16:43;;;;;;;0.50;0.45;;;10.90;99.90;;;;;;5072090;28;20080;-64
2024/01/02 06:19:09;;;;;;;0.50;0.28;;;11.00;99.90;;;;;;5072178;28;20033;-63
2024/01/02 06:21:35;;;;;;;2.70;0.57;;;11.00;99.90;;;;;;5072003;28;20040;-63
2024/01/02 06:24:00;;;;;;;0.50;0.30;;;11.10;99.90;;;;;;5072107;28;20047;-67
2024/01/02 06:26:26;;;;;;;0.90;0.40;;;11.10;99.90;;;;;;5071925;28;20601;-63
2024/01/02 06:28:51;;;;;;;0.60;0.40;;;11.10;99.90;;;;;;5071859;28;20041;-64
2024/01/02 06:31:21;;;;;;;0.43;0.30;;;11.20;99.90;;;;;;5071817;28;20036;-64
2024/01/02 06:33:47;;;;;;;0.60;0.40;;;11.20;99.90;;;;;;5070399;28;20045;-64
2024/01/02 06:36:13;;;;;;;0.43;0.30;;;11.20;99.90;;;;;;5051220;28;20022;-64
2024/01/02 06:38:38;;;;;;;0.68;0.50;;;11.30;99.90;;;;;;5051892;28;20518;-64
2024/01/02 06:41:04;;;;;;;0.60;0.32;;;11.30;99.90;;;;;;5051923;28;20022;-64
2024/01/02 06:43:30;;;;;;;0.73;0.50;;;11.30;99.90;;;;;;5051873;28;20044;-65
2024/01/02 06:45:56;;;;;;;0.60;0.50;;;11.40;99.90;;;;;;5051870;28;20032;-64
2024/01/02 06:48:21;;;;;;;0.88;0.60;;;11.40;99.90;;;;;;5051819;28;20028;-64
2024/01/02 06:50:48;;;;;;;1.20;0.75;;;11.40;99.90;;;;;;5051884;28;20085;-65
2024/01/02 06:53:13;;;;;;;1.67;0.65;;;11.40;99.90;;;;;;5051773;28;20028;-64
2024/01/02 06:55:39;;;;;;;1.52;0.90;;;11.40;99.90;;;;;;5053636;28;20924;-64
2024/01/02 06:58:05;;;;;;;1.80;1.05;;;11.50;99.90;;;;;;5055386;28;20032;-64
2024/01/02 07:00:32;;;;;;;3.45;0.98;;;11.50;99.90;;;;;;5055467;28;20029;-64
2024/01/02 07:02:58;;;;;;;2.75;1.40;;;11.50;99.90;;;;;;5055313;28;20085;-65
2024/01/02 07:05:24;;;;;;;3.03;1.40;;;11.50;99.90;;;;;;5055392;28;20041;-64
2024/01/02 07:07:50;;;;;;;4.05;1.77;;;11.50;99.90;;;;;;5055411;28;20029;-65
2024/01/02 07:10:15;;;;;;;4.22;1.83;;;11.50;99.90;;;;;;5055073;28;20052;-63
2024/01/02 07:12:41;;;;;;;3.90;2.28;;;11.50;99.90;;;;;;5055263;28;20053;-64
2024/01/02 07:15:07;;;;;;;4.03;2.10;;;11.60;99.90;;;;;;5055110;28;20029;-64
2024/01/02 07:17:33;;;;;;;5.40;2.22;;;11.60;99.90;;;;;;5055180;28;20017;-63
2024/01/02 07:19:59;;;;;;;6.22;2.42;;;11.70;99.90;;;;;;5054908;28;20455;-65
2024/01/02 07:22:26;;;;;;;6.45;2.55;;;11.70;99.90;;;;;;5055082;28;20391;-64
2024/01/02 07:24:52;;;;;;;6.88;3.03;;;11.70;99.90;;;;;;5055044;28;20029;-64
2024/01/02 07:27:18;;;;;;;7.93;3.40;;;11.70;99.90;;;;;;5054964;28;20088;-64
2024/01/02 07:29:44;;;;;;;7.65;3.35;;;11.80;99.90;;;;;;5054850;28;20037;-64
2024/01/02 07:32:10;;;;;;;6.75;3.40;;;11.80;99.90;;;;;;5054633;28;20022;-63
2024/01/02 07:34:36;;;;;;;7.88;3.60;;;11.80;99.90;;;;;;5054691;28;20086;-63
2024/01/02 07:37:01;;;;;;;8.18;3.63;;;11.80;99.90;;;;;;5054802;28;20022;-64
2024/01/02 07:39:27;;;;;;;7.05;3.47;;;11.90;99.90;;;;;;5054677;28;20033;-64
2024/01/02 07:41:53;;;;;;;9.48;4.45;;;11.90;99.90;;;;;;5054641;28;20017;-64
2024/01/02 07:44:18;;;;;;;11.80;3.78;;;11.90;99.90;;;;;;5054677;28;20111;-65
2024/01/02 07:46:44;;;;;;;10.30;4.85;;;11.90;99.90;;;;;;5054598;28;20049;-62
2024/01/02 07:49:10;;;;;;;9.95;4.28;;;11.90;99.90;;;;;;5054538;28;20041;-64
2024/01/02 07:51:36;;;;;;;10.57;5.40;;;12.00;99.90;;;;;;5054511;28;20052;-65
2024/01/02 07:54:02;;;;;;;11.48;4.22;;;12.00;99.90;;;;;;5054435;28;20021;-64
2024/01/02 07:56:28;;;;;;;11.73;4.72;;;12.00;99.90;;;;;;5054276;28;20053;-63
2024/01/02 07:58:54;;;;;;;10.57;5.10;;;12.00;99.90;;;;;;5054419;28;20032;-64
2024/01/02 08:01:20;;;;;;;8.07;3.88;;;12.00;99.90;;;;;;5054137;28;20029;-65
2024/01/02 08:03:46;;;;;;;10.57;4.40;;;12.00;99.90;;;;;;5054378;28;20041;-64
2024/01/02 08:06:11;;;;;;;10.48;4.90;;;12.00;99.90;;;;;;5053544;28;20026;-64
2024/01/02 08:08:37;;;;;;;10.32;4.50;;;12.00;99.90;;;;;;5053955;28;20033;-64
2024/01/02 08:11:04;;;;;;;9.65;4.13;;;12.10;99.90;;;;;;5054153;28;20029;-63
2024/01/02 08:13:30;;;;;;;10.98;4.47;;;12.10;99.90;;;;;;5054210;28;20104;-63
2024/01/02 08:15:55;;;;;;;7.65;3.97;;;12.10;99.90;;;;;;5053078;28;20021;-63
2024/01/02 08:18:21;;;;;;;9.90;4.45;;;12.10;99.90;;;;;;5054103;28;20037;-63
2024/01/02 08:20:46;;;;;;;11.43;4.40;;;12.10;99.90;;;;;;5053901;28;20022;-63
2024/01/02 08:23:12;;;;;;;12.15;4.22;;;12.10;99.90;;;;;;5053907;28;20029;-63
2024/01/02 08:25:39;;;;;;;9.23;4.20;;;12.10;99.90;;;;;;5053702;28;20018;-64
2024/01/02 08:28:06;;;;;;;8.95;4.50;;;12.20;99.90;;;;;;5053860;28;20025;-63
2024/01/02 08:30:32;;;;;;;14.80;4.63;;;12.20;99.90;;;;;;5053589;28;20094;-64
2024/01/02 08:32:58;;;;;;;12.23;4.47;;;12.20;99.90;;;;;;5053381;28;20049;-63
2024/01/02 08:35:24;;;;;;;12.63;4.00;;;12.20;99.90;;;;;;5053602;28;20105;-65
2024/01/02 08:37:50;;;;;;;12.18;4.47;;;12.20;99.90;;;;;;5053599;28;20030;-64
2024/01/02 08:40:15;;;;;;;7.65;3.78;;;12.20;99.90;;;;;;5053619;28;20041;-64
2024/01/02 08:42:44;;;;;;;11.43;3.83;;;12.30;99.90;;;;;;5053561;28;20105;-64
2024/01/02 08:45:10;;;;;;;10.73;4.20;;;12.20;99.90;;;;;;5052556;28;20056;-64
2024/01/02 08:47:38;;;;;;;10.68;3.58;;;12.30;99.90;;;;;;5053424;28;20026;-64
2024/01/02 08:50:07;;;;;;;9.68;3.15;;;12.30;99.90;;;;;;5053282;28;20021;-63
2024/01/02 08:52:35;;;;;;;6.28;2.65;;;12.30;99.90;;;;;;5053300;28;20048;-63
2024/01/02 08:55:01;;;;;;;9.10;3.17;;;12.30;99.90;;;;;;5053283;28;20021;-64
2024/01/02 08:57:26;;;;;;;8.85;2.90;;;12.30;99.90;;;;;;5052169;28;20025;-64
2024/01/02 08:59:52;;;;;;;6.68;2.80;;;12.30;99.90;;;;;;5053305;28;20499;-63
2024/01/02 09:02:18;;;;;;;7.20;2.63;;;12.30;99.90;;;;;;5053089;28;20029;-64
2024/01/02 09:04:43;;;;;;;7.38;2.83;;;12.40;99.90;;;;;;5053103;28;20045;-64
2024/01/02 09:07:09;;;;;;;7.95;2.40;;;12.30;99.90;;;;;;5053024;28;20029;-63
2024/01/02 09:09:35;;;;;;;6.20;2.53;;;12.40;99.90;;;;;;5052943;28;20030;-64
2024/01/02 09:12:02;;;;;;;7.18;2.63;;;12.40;99.90;;;;;;5052948;28;20025;-64
2024/01/02 09:14:31;;;;;;;5.93;2.60;;;12.40;99.90;;;;;;5052970;28;20025;-64
2024/01/02 09:16:57;;;;;;;9.32;2.47;;;12.40;99.90;;;;;;5052860;28;20048;-64
2024/01/02 09:19:22;;;;;;;7.45;2.63;;;12.40;99.90;;;;;;5052659;28;20045;-63
2024/01/02 09:21:48;;;;;;;8.18;2.33;;;12.40;99.90;;;;;;5052576;28;20038;-64
2024/01/02 09:24:16;;;;;;;6.38;2.50;;;12.40;99.90;;;;;;5052803;28;20049;-65
2024/01/02 09:26:46;;;;;;;6.30;2.05;;;12.40;99.90;;;;;;5052690;28;20060;-64
2024/01/02 09:29:11;;;;;;;6.38;1.95;;;12.50;99.90;;;;;;5052733;28;20024;-65
2024/01/02 09:31:40;;;;;;;4.30;2.00;;;12.50;99.90;;;;;;5052470;28;20041;-65
2024/01/02 09:34:06;;;;;;;8.05;2.13;;;12.50;99.90;;;;;;5052462;28;20046;-64
2024/01/02 09:36:31;;;;;;;4.78;1.88;;;12.50;99.90;;;;;;5051688;28;20039;-65
2024/01/02 09:38:57;;;;;;;4.00;1.98;;;12.50;99.90;;;;;;5051636;28;20033;-64
2024/01/02 09:41:44;;;;;;;3.10;1.48;;;12.50;99.90;;;;;;5052573;28;20076;-64
2024/01/02 09:44:22;;;;;;;2.78;1.55;;;12.60;99.90;;;;;;5051490;28;20044;-64
2024/01/02 09:46:53;;;;;;;4.68;1.55;;;12.60;99.90;;;;;;5052466;28;20029;-63
2024/01/02 09:49:51;;;;;;;4.03;1.75;;;12.60;99.90;;;;;;5052486;28;20040;-63
2024/01/02 09:52:32;;;;;;;2.30;1.17;;;12.60;99.90;;;;;;5050536;28;20068;-64
2024/01/02 09:55:31;;;;;;;2.00;1.40;;;12.60;99.90;;;;;;5052343;28;20021;-64
2024/01/02 09:58:09;;;;;;;4.20;1.30;;;12.60;99.90;;;;;;5052391;28;20029;-64
2024/01/02 10:00:56;;;;;;;1.42;1.10;;;12.60;99.90;;;;;;5052405;28;20026;-63
2024/01/02 10:03:43;;;;;;;1.27;0.82;;;12.60;99.90;;;;;;5052205;28;20022;-64
2024/01/02 10:06:34;;;;;;;3.58;1.08;;;12.60;99.90;;;;;;5052343;28;20032;-64
2024/01/02 10:09:19;;;;;;;1.33;0.80;;;12.60;99.90;;;;;;5052235;28;20034;-64
2024/01/02 10:12:03;;;;;;;2.08;0.80;;;12.60;99.90;;;;;;5052193;28;20032;-65
2024/01/02 10:14:48;;;;;;;1.33;0.98;;;12.60;99.90;;;;;;5052247;28;20028;-64
2024/01/02 10:17:20;;;;;;;1.00;0.70;;;12.60;99.90;;;;;;5052330;28;20021;-64
2024/01/02 10:20:04;;;;;;;1.00;0.70;;;12.50;99.90;;;;;;5052101;28;20033;-64
2024/01/02 10:22:52;;;;;;;1.20;0.82;;;12.50;99.90;;;;;;5052040;28;20035;-65
2024/01/02 10:25:19;;;;;;;0.75;0.75;;;12.50;99.90;;;;;;5052147;28;20045;-65
2024/01/02 10:28:07;;;;;;;1.75;0.75;;;12.50;99.90;;;;;;5052142;28;20049;-63
2024/01/02 10:30:45;;;;;;;1.70;0.95;;;12.50;99.90;;;;;;5053900;28;20036;-64
2024/01/02 10:33:17;;;;;;;0.68;0.60;;;12.50;99.90;;;;;;5055716;28;20034;-62
2024/01/02 10:35:53;;;;;;;1.45;0.77;;;12.50;99.90;;;;;;5055897;28;20028;-64
2024/01/02 10:38:27;;;;;;;2.70;1.50;;;12.50;99.90;;;;;;5056050;28;20031;-63
2024/01/02 10:41:10;;;;;;;2.28;1.20;;;12.50;99.90;;;;;;5055754;28;20030;-64
2024/01/02 10:43:55;;;;;;;2.20;1.42;;;12.50;99.90;;;;;;5055829;28;20013;-64
2024/01/02 10:46:24;;;;;;;4.10;1.35;;;12.60;99.90;;;;;;5054559;28;20045;-63
2024/01/02 10:49:05;;;;;;;5.10;1.60;;;12.60;99.90;;;;;;5055669;28;20088;-63
2024/01/02 10:51:41;;;;;;;2.63;1.70;;;12.60;99.90;;;;;;5055680;28;20018;-63
2024/01/02 10:54:50;;;;;;;2.45;1.40;;;12.70;99.90;;;;;;5055621;28;20029;-64
2024/01/02 10:57:46;;;;;;;2.35;1.80;;;12.70;99.90;;;;;;5055688;28;20021;-64
2024/01/02 11:00:22;;;;;;;2.67;1.77;;;12.70;99.90;;;;;;5054592;28;20038;-63
2024/01/02 11:02:53;;;;;;;2.67;1.63;;;12.70;99.90;;;;;;5055161;28;20025;-63
2024/01/02 11:05:39;;;;;;;3.42;1.55;;;12.70;99.90;;;;;;5055527;28;20077;-63
2024/01/02 11:08:21;;;;;;;2.00;1.60;;;12.70;99.90;;;;;;5055294;28;20021;-63
2024/01/02 11:10:56;;;;;;;3.40;1.48;;;12.70;99.90;;;;;;5055245;28;20032;-63
2024/01/02 11:13:25;;;;;;;1.67;1.30;;;12.70;99.90;;;;;;5055242;28;20036;-63
2024/01/02 11:16:03;;;;;;;2.00;1.40;;;12.70;99.90;;;;;;5055264;28;20022;-63
2024/01/02 11:18:32;;;;;;;1.63;1.27;;;12.70;99.90;;;;;;5055163;28;20030;-64
2024/01/02 11:21:07;;;;;;;0.95;0.70;;;12.70;99.90;;;;;;5054929;28;20021;-65
2024/01/02 11:23:44;;;;;;;1.27;0.77;;;12.70;99.90;;;;;;5054995;28;20029;-64
2024/01/02 11:26:30;;;;;;;0.68;0.55;;;12.70;99.90;;;;;;5054913;28;20051;-63
2024/01/02 11:29:00;;;;;;;0.73;0.50;;;12.60;99.90;;;;;;5054836;28;20025;-63
2024/01/02 11:31:29;;;;;;;0.30;0.30;;;12.60;99.90;;;;;;5054731;28;20031;-63
2024/01/02 11:34:19;;;;;;;0.43;0.30;;;12.60;99.90;;;;;;5054738;28;20073;-63
2024/01/02 11:37:14;;;;;;;0.70;0.50;;;12.60;99.90;;;;;;5054794;28;20025;-63
2024/01/02 11:39:51;;;;;;;1.15;0.60;;;12.50;99.90;;;;;;5054354;28;20042;-64
2024/01/02 11:42:47;;;;;;;1.55;0.68;;;12.50;99.90;;;;;;5053446;28;20038;-64
2024/01/02 11:45:17;;;;;;;0.73;0.50;;;12.40;99.90;;;;;;5054647;28;20025;-64
2024/01/02 11:48:05;;;;;;;0.63;0.40;;;12.40;99.90;;;;;;5054729;28;20052;-62
2024/01/02 11:51:09;;;;;;;0.70;0.38;;;12.30;99.90;;;;;;5054385;28;20026;-64
2024/01/02 11:53:58;;;;;;;2.47;0.70;;;12.30;99.90;;;;;;5054415;28;20081;-63
2024/01/02 11:56:25;;;;;;;0.50;0.30;;;12.30;99.90;;;;;;5068448;28;20629;-65
2024/01/02 11:59:18;;;;;;;0.38;0.35;;;12.20;99.90;;;;;;5072922;28;20032;-64
2024/01/02 12:01:53;;;;;;;;;;;12.20;99.90;;;;;;5073759;28;20092;-64
2024/01/02 12:04:39;;;;;;;1.23;0.43;;;12.20;99.90;;;;;;5073870;28;19911;-63
2024/01/02 12:07:18;;;;;;;0.50;0.30;;;12.10;99.90;;;;;;5073235;28;20104;-64
2024/01/02 12:09:46;;;;;;;1.02;0.60;;;12.00;99.90;;;;;;5074100;28;20021;-64
2024/01/02 12:12:41;;;;;;;0.60;0.60;;;12.00;99.90;;;;;;5074268;28;20025;-65
2024/01/02 12:15:13;;;;;;;0.80;0.70;;;12.00;99.90;;;;;;5074137;28;20025;-65
2024/01/02 12:18:04;;;;;;;0.73;0.73;;;12.00;99.90;;;;;;5074136;28;20029;-64
2024/01/02 12:20:47;;;;;;;0.85;0.80;;;12.00;99.90;;;;;;5073897;28;20054;-65
2024/01/02 12:23:13;;;;;;;0.57;0.40;;;12.00;99.90;;;;;;5074034;28;20070;-65
2024/01/02 12:25:43;;;;;;;1.20;0.60;;;11.90;99.90;;;;;;5073842;28;20041;-64
2024/01/02 12:28:11;;;;;;;0.63;0.55;;;11.90;99.90;;;;;;5073904;28;20029;-64
2024/01/02 12:30:49;;;;;;;0.40;0.40;;;11.90;99.90;;;;;;5073764;28;20055;-64
2024/01/02 12:33:36;;;;;;;0.55;0.50;;;11.90;99.90;;;;;;5073524;28;20040;-65
2024/01/02 12:36:18;;;;;;;2.10;0.40;;;11.90;99.90;;;;;;5073700;28;20025;-65
2024/01/02 12:38:51;;;;;;;;;;;11.80;99.90;;;;;;5074162;28;20025;-64
2024/01/02 12:41:35;;;;;;;0.57;0.30;;;11.80;99.90;;;;;;5073678;28;19905;-64
2024/01/02 12:44:06;;;;;;;0.90;0.30;;;11.70;99.90;;;;;;5073610;28;20059;-63
2024/01/02 12:46:39;;;;;;;0.60;0.30;;;11.70;99.90;;;;;;5073529;28;20025;-64
2024/01/02 12:49:15;;;;;;;0.63;0.20;;;11.70;99.90;;;;;;5073420;28;20025;-65
2024/01/02 12:51:45;;;;;;;0.30;0.30;;;11.70;99.90;;;;;;5073281;28;20013;-65
2024/01/02 12:54:14;;;;;;;0.60;0.30;;;11.70;99.90;;;;;;5072820;28;20021;-64
2024/01/02 12:56:46;;;;;;;1.85;0.50;;;11.70;99.90;;;;;;5073272;28;20025;-64
2024/01/02 12:59:13;;;;;;;0.52;0.38;;;11.70;99.90;;;;;;5073272;28;20491;-65
2024/01/02 13:01:38;;;;;;;0.32;0.32;;;11.70;99.90;;;;;;5073027;28;20426;-65